Lockwood, California
Current Conditions -  °F | °C
As of 4:53 AM on Friday 24 Oct 2014 (Local Time) from KPRB Reporting Station
Clear Clear  
Wind Chill: 46°   Ceiling: Unl
Heat Index: 46°   Visibility: 10mi
Dew Point: 38°   Wind: 0mph
Humidity: 73%   Direction: NA
Pressure: 29.98"   Gusts: NA
Location:  35.94°N, 121.08°W
Report Text: KPRB 241153Z AUTO 00000KT 10SM CLR 08/03 A2998 RMK AO2 SLP148 T00780033 10156 20078 55003 TSNO
Loading
Personal Weather Stations






























Interactive Weather Map
Tropical Storm Tracking
New forecast layout! Learn more

10-Day Weather Forecast

Advertisements
Track Severe Weather on mobile